Time;durP1;ratioP1;P1;durP2;ratioP2;P2;SDS_P1;SDS_P2;PMS_P1;PMS_P2;Temp;Humidity;BMP_temperature;BMP_pressure;BME280_temperature;BME280_humidity;BME280_pressure;Samples;Min_cycle;Max_cycle;Signal;HPM_P1;HPM_P2
2023/03/10 00:00:29;;;;;;;38.22;7.07;;;10.90;99.90;;;9.96;100.00;98935.94;4151846;28;20098;-75
2023/03/10 00:02:31;;;;;;;30.02;7.55;;;10.80;99.90;;;10.09;100.00;98949.16;4150889;28;20432;-76
2023/03/10 00:04:32;;;;;;;29.33;5.97;;;10.80;99.90;;;9.95;100.00;98929.84;4150642;28;20018;-75
2023/03/10 00:06:34;;;;;;;25.77;4.60;;;10.80;99.90;;;9.80;100.00;98960.75;4150217;28;20037;-76
2023/03/10 00:08:35;;;;;;;20.30;4.47;;;10.70;99.90;;;9.67;100.00;99010.72;4146903;28;20027;-75
2023/03/10 00:10:37;;;;;;;33.40;4.85;;;10.50;99.90;;;9.44;100.00;98957.50;4124905;28;20031;-75
2023/03/10 00:12:38;;;;;;;31.08;4.68;;;10.40;99.90;;;9.34;100.00;98957.03;4144400;28;20025;-75
2023/03/10 00:14:39;;;;;;;24.77;5.32;;;10.20;99.90;;;9.15;100.00;98910.34;4134397;28;20046;-75
2023/03/10 00:16:40;;;;;;;27.42;5.45;;;10.10;99.90;;;9.19;100.00;98927.38;4137270;28;20026;-75
2023/03/10 00:18:41;;;;;;;30.23;5.05;;;10.00;99.90;;;9.09;100.00;98966.34;4145102;28;20517;-75
2023/03/10 00:20:42;;;;;;;32.17;6.28;;;10.00;99.90;;;9.09;100.00;98927.69;4153461;28;20033;-75
2023/03/10 00:22:43;;;;;;;32.08;6.20;;;10.00;99.90;;;9.18;100.00;98966.00;4169821;28;20411;-75
2023/03/10 00:24:43;;;;;;;25.85;5.22;;;10.00;99.90;;;9.19;100.00;98972.91;4153770;28;20033;-75
2023/03/10 00:26:44;;;;;;;20.20;4.93;;;10.00;99.90;;;9.30;100.00;98966.31;4154533;28;20088;-76
2023/03/10 00:28:46;;;;;;;22.88;4.55;;;10.00;99.90;;;9.39;100.00;98981.78;4154417;28;20029;-75
2023/03/10 00:31:01;;;;;;;25.00;4.22;;;10.10;99.90;;;9.32;100.00;98964.28;4153679;28;20030;-75
2023/03/10 00:33:02;;;;;;;29.75;6.32;;;10.10;99.90;;;9.43;100.00;98990.09;4143054;28;20042;-76
2023/03/10 00:35:05;;;;;;;25.80;4.82;;;10.20;99.90;;;9.34;100.00;98970.19;4153156;28;20124;-75
2023/03/10 00:37:05;;;;;;;26.85;4.97;;;10.30;99.90;;;9.30;100.00;98980.28;4152251;28;20038;-75
2023/03/10 00:39:07;;;;;;;33.78;4.63;;;10.20;99.90;;;9.27;100.00;98979.84;4154172;28;20516;-75
2023/03/10 00:41:12;;;;;;;24.75;5.47;;;10.10;99.90;;;9.41;100.00;98976.31;4154261;28;20084;-75
2023/03/10 00:43:12;;;;;;;24.65;5.45;;;10.20;99.90;;;9.25;100.00;98980.03;4153232;28;20101;-75
2023/03/10 00:45:13;;;;;;;28.95;4.97;;;10.20;99.90;;;9.24;100.00;98983.66;4154297;28;20036;-75
2023/03/10 00:47:14;;;;;;;25.55;5.43;;;10.10;99.90;;;9.37;100.00;98990.88;4153119;28;20417;-75
2023/03/10 00:49:16;;;;;;;25.52;4.55;;;10.10;99.90;;;9.19;100.00;98980.00;4153026;28;20049;-75
2023/03/10 00:51:19;;;;;;;22.52;5.00;;;10.20;99.90;;;9.32;100.00;98988.78;4128130;28;20018;-76
2023/03/10 00:53:20;;;;;;;19.52;4.15;;;10.10;99.90;;;9.43;100.00;99000.63;4153335;28;20532;-76
2023/03/10 00:55:21;;;;;;;22.98;4.88;;;10.10;99.90;;;9.35;100.00;99011.28;4154210;28;20169;-76
2023/03/10 00:57:22;;;;;;;18.63;4.15;;;10.20;99.90;;;9.26;100.00;99005.34;4154125;28;20489;-76
2023/03/10 00:59:23;;;;;;;21.42;4.25;;;10.10;99.90;;;9.32;100.00;99009.84;4152869;28;20036;-76
2023/03/10 01:01:28;;;;;;;28.63;5.25;;;10.10;99.90;;;9.39;100.00;98994.09;4152801;28;20044;-75
2023/03/10 01:03:29;;;;;;;17.50;4.28;;;10.20;99.90;;;9.30;100.00;98996.06;4153932;28;20084;-76
2023/03/10 01:05:30;;;;;;;24.10;4.68;;;10.20;99.90;;;9.41;100.00;99003.44;4153100;28;20072;-76
2023/03/10 01:07:31;;;;;;;23.63;5.07;;;10.20;99.90;;;9.33;100.00;99019.38;4148801;28;20145;-76
2023/03/10 01:09:32;;;;;;;22.33;5.65;;;10.20;99.90;;;9.44;100.00;99003.06;4154224;28;20501;-75
2023/03/10 01:11:33;;;;;;;26.60;5.57;;;10.20;99.90;;;9.30;100.00;99013.66;4153799;28;20034;-76
2023/03/10 01:13:34;;;;;;;21.58;3.55;;;10.20;99.90;;;9.31;100.00;99023.19;4152546;28;20054;-76
2023/03/10 01:17:36;;;;;;;23.50;4.20;;;10.20;99.90;;;9.16;100.00;99041.69;4154360;28;20030;-76
2023/03/10 01:19:37;;;;;;;23.75;4.28;;;10.00;99.90;;;8.95;100.00;99054.00;4152676;28;20030;-76
2023/03/10 01:21:38;;;;;;;20.70;3.83;;;9.90;99.90;;;8.89;100.00;99047.69;4152599;28;20056;-76
2023/03/10 01:23:39;;;;;;;20.65;4.18;;;9.80;99.90;;;8.95;100.00;99028.53;4159016;28;20032;-76
2023/03/10 01:25:41;;;;;;;30.35;5.30;;;9.80;99.90;;;9.02;100.00;99041.75;4153775;28;20022;-75
2023/03/10 01:27:42;;;;;;;22.65;5.60;;;9.80;99.90;;;9.01;100.00;99030.41;4151338;28;20036;-75
2023/03/10 01:29:43;;;;;;;25.00;5.07;;;9.80;99.90;;;8.86;100.00;99045.44;4152177;28;20034;-75
2023/03/10 01:31:44;;;;;;;22.70;6.75;;;9.80;99.90;;;9.04;100.00;99063.41;4153042;28;20026;-75
2023/03/10 01:33:45;;;;;;;21.13;4.75;;;9.80;99.90;;;9.19;100.00;99053.66;4136114;28;20096;-76
2023/03/10 01:35:46;;;;;;;24.65;5.25;;;9.90;99.90;;;9.06;100.00;99040.34;4152590;28;20038;-76
2023/03/10 01:37:47;;;;;;;19.25;5.30;;;9.90;99.90;;;9.06;100.00;99050.88;4153329;28;20053;-76
2023/03/10 01:39:48;;;;;;;25.20;5.28;;;9.90;99.90;;;9.08;100.00;99068.09;4152190;28;20026;-76
2023/03/10 01:41:49;;;;;;;27.80;5.60;;;9.90;99.90;;;8.89;100.00;99066.91;4153447;28;20033;-75
2023/03/10 01:43:54;;;;;;;26.40;4.38;;;9.80;99.90;;;8.88;100.00;99074.97;4135683;28;20040;-75
2023/03/10 01:46:00;;;;;;;25.52;4.70;;;9.80;99.90;;;8.87;100.00;99083.84;4152267;28;20493;-75
2023/03/10 01:48:01;;;;;;;19.67;3.88;;;9.70;99.90;;;8.84;100.00;99082.41;4144340;28;20030;-75
2023/03/10 01:50:05;;;;;;;26.15;4.35;;;9.70;99.90;;;8.71;100.00;99079.66;4153509;28;20022;-75
2023/03/10 01:52:22;;;;;;;17.88;3.90;;;9.60;99.90;;;8.61;100.00;99073.84;4152089;28;20018;-75
2023/03/10 01:54:29;;;;;;;21.75;3.67;;;9.50;99.90;;;8.66;100.00;99079.38;4168457;28;20068;-75
2023/03/10 01:56:30;;;;;;;16.48;2.78;;;9.50;99.90;;;8.79;100.00;99118.97;4152063;28;20026;-76
2023/03/10 01:58:39;;;;;;;12.13;2.97;;;9.60;99.90;;;8.79;100.00;99076.91;4151660;28;20452;-76
2023/03/10 02:00:41;;;;;;;16.08;2.95;;;9.60;99.90;;;8.72;100.00;99078.63;4152101;28;20026;-76
2023/03/10 02:03:17;;;;;;;17.83;3.00;;;9.50;99.90;;;8.73;100.00;99098.66;4151690;28;20026;-75
2023/03/10 02:05:19;;;;;;;25.33;4.07;;;9.60;99.90;;;8.64;100.00;99062.97;4151884;28;20048;-75
2023/03/10 02:07:27;;;;;;;17.17;3.75;;;9.60;99.90;;;8.72;100.00;99080.47;4148819;28;20108;-75
2023/03/10 02:09:28;;;;;;;18.02;2.95;;;9.60;99.90;;;8.66;100.00;99094.34;4151964;28;20100;-75
2023/03/10 02:11:30;;;;;;;13.27;3.97;;;9.50;99.90;;;8.67;100.00;99101.22;4152949;28;20065;-76
2023/03/10 02:13:31;;;;;;;25.58;4.10;;;9.60;99.90;;;8.70;100.00;99099.03;4151619;28;20069;-76
2023/03/10 02:15:33;;;;;;;18.85;3.72;;;9.60;99.90;;;8.60;100.00;99081.94;4135552;28;20045;-76
2023/03/10 02:17:34;;;;;;;18.10;3.97;;;9.60;99.90;;;8.59;100.00;99098.69;4150788;28;20030;-76
2023/03/10 02:20:03;;;;;;;17.30;3.97;;;9.50;99.90;;;8.67;100.00;99094.16;4164572;28;20060;-76
2023/03/10 02:22:10;;;;;;;25.08;3.67;;;9.50;99.90;;;8.61;100.00;99094.88;4152229;28;20373;-76
2023/03/10 02:24:34;;;;;;;22.45;4.35;;;9.50;99.90;;;8.62;100.00;99103.59;4151856;28;20561;-76
2023/03/10 02:27:03;;;;;;;15.55;3.10;;;9.50;99.90;;;8.63;100.00;99113.91;4150281;28;20084;-76
2023/03/10 02:29:10;;;;;;;14.25;3.15;;;9.50;99.90;;;8.60;100.00;99101.13;4144631;28;20034;-76
2023/03/10 02:31:13;;;;;;;18.10;3.13;;;9.50;99.90;;;8.60;100.00;99114.25;4150901;28;20644;-75
2023/03/10 02:33:29;;;;;;;13.95;3.38;;;9.50;99.90;;;8.83;100.00;99137.81;4139744;28;20064;-76
2023/03/10 02:35:30;;;;;;;15.23;2.72;;;9.50;99.90;;;8.77;100.00;99128.84;4146325;28;20033;-76
2023/03/10 02:37:34;;;;;;;18.25;3.30;;;9.60;99.90;;;8.75;100.00;99111.66;4142630;28;20398;-76
2023/03/10 02:39:35;;;;;;;12.63;2.47;;;9.60;99.90;;;8.66;100.00;99124.03;4138227;28;20034;-76
2023/03/10 02:41:38;;;;;;;18.73;3.00;;;9.60;99.90;;;8.69;100.00;99125.53;4151478;28;20065;-75
2023/03/10 02:43:39;;;;;;;12.27;3.20;;;9.60;99.90;;;8.61;100.00;99141.38;4151184;28;20026;-76
2023/03/10 02:45:43;;;;;;;17.10;4.18;;;9.50;99.90;;;8.77;100.00;99135.94;4152448;28;20025;-75
2023/03/10 02:47:44;;;;;;;18.85;3.42;;;9.50;99.90;;;8.85;100.00;99152.41;4144757;28;20049;-76
2023/03/10 02:49:44;;;;;;;14.68;3.20;;;9.60;99.90;;;8.63;100.00;99155.94;4151248;28;20060;-76
2023/03/10 02:51:46;;;;;;;13.82;3.03;;;9.50;99.90;;;8.66;100.00;99152.97;4167661;28;20033;-75
2023/03/10 02:53:47;;;;;;;15.60;4.53;;;9.50;99.90;;;8.49;100.00;99137.56;4153019;28;20037;-75
2023/03/10 02:55:49;;;;;;;16.05;2.88;;;9.50;99.90;;;8.43;100.00;99162.75;4146540;28;20121;-76
2023/03/10 02:57:49;;;;;;;19.40;4.22;;;9.40;99.90;;;8.44;100.00;99180.16;4147060;28;20429;-76
2023/03/10 02:59:50;;;;;;;17.08;2.80;;;9.30;99.90;;;8.47;100.00;99165.84;4147058;28;20030;-75
2023/03/10 03:01:51;;;;;;;17.85;3.95;;;9.30;99.90;;;8.37;100.00;99168.72;4152346;28;20038;-76
2023/03/10 03:03:53;;;;;;;13.77;2.92;;;9.30;99.90;;;8.49;100.00;99182.25;4152704;28;20034;-75
2023/03/10 03:05:54;;;;;;;14.98;2.80;;;9.30;99.90;;;8.54;100.00;99182.53;4152367;28;20030;-75
2023/03/10 03:07:54;;;;;;;16.30;3.10;;;9.30;99.90;;;8.50;100.00;99197.84;4151118;28;20026;-76
2023/03/10 03:09:55;;;;;;;17.85;3.17;;;9.30;99.90;;;8.49;100.00;99188.31;4152236;28;20022;-75
2023/03/10 03:11:57;;;;;;;17.75;3.83;;;9.30;99.90;;;8.47;100.00;99203.44;4152400;28;20121;-75
2023/03/10 03:13:57;;;;;;;19.65;3.95;;;9.30;99.90;;;8.47;100.00;99207.88;4151929;28;20073;-76
2023/03/10 03:15:58;;;;;;;12.93;3.53;;;9.30;99.90;;;8.44;100.00;99208.25;4151232;28;20026;-75
2023/03/10 03:18:00;;;;;;;18.67;3.92;;;9.30;99.90;;;8.45;100.00;99210.72;4167164;28;20516;-75
2023/03/10 03:20:01;;;;;;;12.32;2.55;;;9.30;99.90;;;8.53;100.00;99205.38;4151205;28;20038;-76
2023/03/10 03:22:02;;;;;;;17.17;3.05;;;9.40;99.90;;;8.61;100.00;99222.84;4151188;28;20040;-76
2023/03/10 03:24:03;;;;;;;22.33;4.47;;;9.40;99.90;;;8.65;100.00;99232.00;4152179;28;20096;-76
2023/03/10 03:26:16;;;;;;;13.07;3.55;;;9.40;99.90;;;8.74;100.00;99223.88;4152122;28;20017;-76
2023/03/10 03:28:17;;;;;;;11.70;2.70;;;9.50;99.90;;;8.76;100.00;99224.50;4140701;28;20519;-76
2023/03/10 03:30:23;;;;;;;16.15;2.97;;;9.50;99.90;;;8.73;100.00;99229.28;4151977;28;20105;-76
2023/03/10 03:32:24;;;;;;;16.17;3.20;;;9.50;99.90;;;8.69;100.00;99244.59;4151120;28;20030;-76
2023/03/10 03:34:25;;;;;;;10.60;2.53;;;9.50;99.90;;;8.62;100.00;99242.88;4150762;28;20069;-76
2023/03/10 03:36:25;;;;;;;13.48;2.85;;;9.50;99.90;;;8.64;100.00;99241.72;4150920;28;20033;-76
2023/03/10 03:38:26;;;;;;;18.98;3.50;;;9.50;99.90;;;8.59;100.00;99253.75;4127065;28;20029;-76
2023/03/10 03:40:32;;;;;;;17.15;3.38;;;9.50;99.90;;;8.65;100.00;99263.56;4146744;28;20025;-75
2023/03/10 03:42:33;;;;;;;15.20;3.40;;;9.50;99.90;;;8.72;100.00;99281.03;4134790;28;20445;-76
2023/03/10 03:44:34;;;;;;;15.00;4.18;;;9.50;99.90;;;8.60;100.00;99271.97;4167091;28;20025;-76
2023/03/10 03:46:35;;;;;;;18.58;5.22;;;9.50;99.90;;;8.76;100.00;99290.22;4167242;28;20574;-76
2023/03/10 03:48:37;;;;;;;13.18;3.20;;;9.60;99.90;;;8.69;100.00;99273.50;4151179;28;20033;-75
2023/03/10 03:50:37;;;;;;;17.10;3.75;;;9.60;99.90;;;8.62;100.00;99291.03;4168173;28;20029;-76
2023/03/10 03:52:40;;;;;;;12.07;2.53;;;9.60;99.90;;;8.76;100.00;99289.41;4165711;28;20033;-75
2023/03/10 03:54:41;;;;;;;12.50;2.38;;;9.60;99.90;;;8.81;100.00;99308.88;4162698;28;20031;-76
2023/03/10 03:56:42;;;;;;;9.60;2.63;;;9.70;99.90;;;8.78;100.00;99317.13;4155038;28;20038;-76
2023/03/10 03:58:43;;;;;;;13.10;3.13;;;9.60;99.90;;;8.81;100.00;99301.00;4169731;28;20032;-76
2023/03/10 04:00:43;;;;;;;14.27;2.80;;;9.60;99.90;;;8.81;100.00;99306.25;4170183;28;20135;-75
2023/03/10 04:02:44;;;;;;;14.60;2.80;;;9.60;99.90;;;8.71;100.00;99316.22;4146181;28;20108;-76
2023/03/10 04:04:46;;;;;;;11.98;2.70;;;9.60;99.90;;;8.71;100.00;99346.97;4154946;28;20041;-76
2023/03/10 04:06:46;;;;;;;14.80;3.03;;;9.60;99.90;;;8.68;100.00;99331.53;4154699;28;20022;-75
2023/03/10 04:08:50;;;;;;;15.40;3.75;;;9.60;99.90;;;8.60;100.00;99350.81;4153260;28;20033;-75
2023/03/10 04:10:53;;;;;;;15.65;3.05;;;9.50;99.90;;;8.63;100.00;99339.16;4153740;28;20034;-76
2023/03/10 04:12:54;;;;;;;20.67;3.33;;;9.50;99.90;;;8.59;100.00;99341.31;4153443;28;20096;-76
2023/03/10 04:14:55;;;;;;;12.60;2.42;;;9.50;99.90;;;8.62;100.00;99358.53;4153249;28;20026;-76
2023/03/10 04:16:56;;;;;;;11.50;2.10;;;9.40;99.90;;;8.74;100.00;99360.56;4166396;28;20021;-76
2023/03/10 04:18:57;;;;;;;11.57;2.97;;;9.50;99.90;;;8.62;100.00;99359.34;4147229;28;20034;-75
2023/03/10 04:20:58;;;;;;;13.95;3.00;;;9.50;99.90;;;8.61;100.00;99362.97;4153642;28;20384;-76
2023/03/10 04:23:00;;;;;;;11.55;2.08;;;9.50;99.90;;;8.59;100.00;99375.47;4153311;28;20018;-76
2023/03/10 04:25:02;;;;;;;14.23;3.15;;;9.40;99.90;;;8.62;100.00;99380.38;4158879;28;20021;-76
2023/03/10 04:27:03;;;;;;;12.77;2.20;;;9.50;99.90;;;8.66;100.00;99389.53;4154774;28;20052;-76
2023/03/10 04:29:04;;;;;;;14.35;2.75;;;9.50;99.90;;;8.60;100.00;99384.97;4153229;28;20029;-76
2023/03/10 04:31:15;;;;;;;14.40;3.13;;;9.50;99.90;;;8.70;100.00;99403.97;4152214;28;20037;-76
2023/03/10 04:33:16;;;;;;;12.00;2.75;;;9.50;99.90;;;8.74;100.00;99404.44;4154664;28;20488;-76
2023/03/10 04:35:17;;;;;;;14.40;2.92;;;9.50;99.90;;;8.61;100.00;99402.41;4154526;28;20018;-76
2023/03/10 04:37:20;;;;;;;13.48;2.65;;;9.50;99.90;;;8.64;100.00;99409.94;4153240;28;20029;-76
2023/03/10 04:39:21;;;;;;;10.38;2.50;;;9.50;99.90;;;8.66;100.00;99436.06;4153569;28;20366;-76
2023/03/10 04:41:22;;;;;;;14.75;2.97;;;9.50;99.90;;;8.60;100.00;99440.19;4169550;28;20040;-76
2023/03/10 04:43:24;;;;;;;9.27;2.60;;;9.50;99.90;;;8.58;100.00;99444.81;4153168;28;20026;-76
2023/03/10 04:45:25;;;;;;;12.65;2.67;;;9.50;99.90;;;8.45;100.00;99441.94;4169409;28;20029;-76
2023/03/10 04:47:26;;;;;;;15.88;2.90;;;9.40;99.90;;;8.42;100.00;99452.81;4153156;28;20033;-76
2023/03/10 04:49:28;;;;;;;13.57;2.17;;;9.40;99.90;;;8.46;100.00;99464.59;4169608;28;20493;-76
2023/03/10 04:51:29;;;;;;;20.50;4.25;;;9.40;99.90;;;8.56;100.00;99452.06;4153241;28;20030;-75
2023/03/10 04:53:31;;;;;;;20.70;3.10;;;9.40;99.90;;;8.56;100.00;99461.75;4169340;28;20051;-76
2023/03/10 04:55:32;;;;;;;12.90;2.47;;;9.40;99.90;;;8.43;100.00;99467.56;4169164;28;20068;-75
2023/03/10 04:57:33;;;;;;;10.60;1.95;;;9.40;99.90;;;8.47;100.00;99468.03;4144711;28;20038;-75
2023/03/10 04:59:34;;;;;;;10.20;2.78;;;9.40;99.90;;;8.34;100.00;99479.09;4153784;28;20568;-76
2023/03/10 05:01:35;;;;;;;24.67;3.05;;;9.40;99.90;;;8.58;99.47;99481.59;4154079;28;20026;-76
2023/03/10 05:03:36;;;;;;;17.33;2.30;;;9.40;99.90;;;8.43;99.82;99500.91;4152844;28;20072;-76
2023/03/10 05:05:37;;;;;;;17.83;2.72;;;9.40;99.90;;;8.48;98.47;99533.59;4154088;28;20041;-76
2023/03/10 05:07:38;;;;;;;13.60;2.72;;;9.40;99.90;;;8.50;97.87;99500.06;4152833;28;20092;-76
2023/03/10 05:09:39;;;;;;;15.15;2.78;;;9.40;99.90;;;8.52;97.21;99526.97;4136441;28;20038;-75
2023/03/10 05:11:40;;;;;;;16.30;2.90;;;9.40;99.90;;;8.48;97.32;99525.69;4152768;28;20128;-76
2023/03/10 05:13:41;;;;;;;18.30;2.67;;;9.40;99.90;;;8.37;98.27;99523.44;4136265;28;20054;-75
2023/03/10 05:15:42;;;;;;;17.83;4.05;;;9.40;99.90;;;8.47;97.63;99539.81;4153993;28;20034;-76
2023/03/10 05:17:43;;;;;;;15.45;2.42;;;9.30;99.90;;;8.42;97.63;99544.78;4143512;28;20038;-76
2023/03/10 05:19:44;;;;;;;15.65;2.83;;;9.30;99.90;;;8.43;97.94;99550.81;4167632;28;20570;-75
2023/03/10 05:21:45;;;;;;;14.63;3.10;;;9.30;99.90;;;8.45;98.50;99564.63;4152634;28;20053;-75
2023/03/10 05:23:46;;;;;;;15.10;2.60;;;9.30;99.90;;;8.43;98.27;99575.31;4153872;28;20038;-76
2023/03/10 05:25:47;;;;;;;13.98;3.35;;;9.30;99.90;;;8.34;98.00;99571.88;4152363;28;20050;-76
2023/03/10 05:27:48;;;;;;;14.20;1.83;;;9.30;99.90;;;8.33;97.84;99577.34;4168751;28;20067;-75
2023/03/10 05:29:49;;;;;;;13.55;3.10;;;9.30;99.90;;;8.36;97.26;99566.47;4152323;28;20034;-76
2023/03/10 05:31:50;;;;;;;13.07;2.70;;;9.30;99.90;;;8.37;97.57;99590.94;4168712;28;20025;-75
2023/03/10 05:33:52;;;;;;;12.68;2.50;;;9.30;99.90;;;8.28;97.78;99595.38;4136056;28;20461;-75
2023/03/10 05:35:53;;;;;;;13.05;2.42;;;9.20;99.90;;;8.37;97.91;99591.75;4152182;28;20371;-75
2023/03/10 05:37:54;;;;;;;18.38;4.00;;;9.20;99.90;;;8.20;97.62;99601.47;4130808;28;20038;-75
2023/03/10 05:39:55;;;;;;;14.70;2.70;;;9.20;99.90;;;8.23;96.83;99611.66;4152343;28;20128;-76
2023/03/10 05:41:56;;;;;;;18.20;2.92;;;9.20;99.90;;;8.20;96.49;99609.34;4152278;28;20052;-75
2023/03/10 05:43:57;;;;;;;16.95;2.85;;;9.20;99.90;;;8.24;96.16;99617.72;4150515;28;20052;-75
2023/03/10 05:45:59;;;;;;;11.30;3.35;;;9.20;99.90;;;8.32;95.98;99631.69;4152316;28;20029;-76
2023/03/10 05:48:00;;;;;;;20.70;4.07;;;9.20;99.90;;;8.20;94.32;99626.91;4149231;28;20481;-76
2023/03/10 05:50:01;;;;;;;14.57;3.33;;;9.20;99.90;;;8.29;94.06;99653.03;4152040;28;20046;-76
2023/03/10 05:52:02;;;;;;;13.88;2.80;;;9.20;99.90;;;8.22;93.25;99661.72;4150216;28;20038;-76
2023/03/10 05:54:05;;;;;;;11.18;3.40;;;9.10;99.90;;;8.24;93.01;99680.78;4152331;28;20583;-75
2023/03/10 05:56:14;;;;;;;14.45;3.03;;;9.10;99.90;;;8.16;91.27;99678.13;4168303;28;20079;-76
2023/03/10 05:58:15;;;;;;;12.38;2.42;;;9.10;99.90;;;8.17;91.09;99678.00;4150200;28;20060;-75
2023/03/10 06:00:16;;;;;;;14.60;2.78;;;9.10;99.90;;;8.09;90.98;99692.94;4167938;28;20025;-75
2023/03/10 06:02:17;;;;;;;11.10;2.08;;;9.00;99.90;;;8.10;89.79;99691.94;4168720;28;20030;-75
2023/03/10 06:04:18;;;;;;;8.07;2.67;;;9.00;99.90;;;8.06;90.10;99688.84;4153170;28;20026;-76
2023/03/10 06:06:19;;;;;;;9.25;2.25;;;9.00;99.90;;;8.05;89.83;99686.38;4151919;28;20061;-76
2023/03/10 06:08:20;;;;;;;15.70;2.88;;;9.00;99.90;;;8.02;89.90;99702.44;4168166;28;20030;-75
2023/03/10 06:10:20;;;;;;;13.40;2.83;;;8.90;99.90;;;7.89;91.20;99705.56;4152012;28;20029;-76
2023/03/10 06:12:21;;;;;;;7.40;1.85;;;8.90;99.90;;;7.93;90.53;99711.31;4151608;28;20482;-76
2023/03/10 06:14:23;;;;;;;13.52;2.53;;;8.90;99.90;;;8.04;90.63;99716.22;4150738;28;20050;-75
2023/03/10 06:16:24;;;;;;;14.43;3.22;;;8.90;99.90;;;8.01;90.45;99721.81;4167598;28;20416;-76
2023/03/10 06:18:26;;;;;;;11.20;2.60;;;8.90;99.90;;;7.97;90.86;99731.03;4131286;28;20050;-76
2023/03/10 06:20:27;;;;;;;16.48;3.45;;;8.90;99.90;;;8.01;91.14;99748.91;4143315;28;20022;-75
2023/03/10 06:22:27;;;;;;;11.52;3.30;;;8.90;99.90;;;8.00;92.02;99747.28;4167334;28;20444;-76
2023/03/10 06:24:29;;;;;;;12.35;3.67;;;8.90;99.90;;;8.00;92.65;99756.94;4152760;28;20065;-75
2023/03/10 06:26:30;;;;;;;11.95;2.45;;;8.90;99.90;;;7.90;92.47;99761.53;4151692;28;20033;-76
2023/03/10 06:28:31;;;;;;;17.25;4.30;;;8.80;99.90;;;7.89;92.39;99770.38;4152530;28;20061;-76
2023/03/10 06:30:32;;;;;;;16.10;3.40;;;8.80;99.90;;;7.89;91.94;99773.00;4152794;28;20069;-76
2023/03/10 06:32:34;;;;;;;13.00;2.70;;;8.80;99.90;;;7.95;92.87;99807.31;4151515;28;20033;-75
2023/03/10 06:34:35;;;;;;;12.82;2.17;;;8.80;99.90;;;7.86;92.20;99795.16;4135171;28;20054;-75
2023/03/10 06:36:39;;;;;;;17.00;3.30;;;8.80;99.90;;;7.99;91.43;99813.06;4151854;28;20030;-76
2023/03/10 06:38:40;;;;;;;19.92;3.53;;;8.80;99.90;;;7.89;90.06;99792.22;4146321;28;20129;-75
2023/03/10 06:40:41;;;;;;;13.40;2.83;;;8.90;99.90;;;7.83;90.51;99829.63;4150364;28;20057;-75
2023/03/10 06:42:43;;;;;;;13.05;2.67;;;8.80;99.90;;;7.96;89.98;99832.59;4167888;28;20467;-75
2023/03/10 06:44:44;;;;;;;12.70;2.28;;;8.80;99.90;;;7.99;89.55;99824.41;4151091;28;20018;-75
2023/03/10 06:46:48;;;;;;;16.70;2.40;;;8.80;99.90;;;7.98;89.40;99854.25;4152612;28;20080;-75
2023/03/10 06:48:49;;;;;;;14.35;4.78;;;8.90;99.90;;;7.88;90.91;99840.47;4151220;28;20022;-75
2023/03/10 06:50:50;;;;;;;11.73;3.92;;;8.90;99.90;;;7.90;91.14;99830.63;4135407;28;20633;-76
2023/03/10 06:52:51;;;;;;;20.55;2.72;;;8.80;99.90;;;7.95;90.77;99861.63;4153667;28;20028;-76
2023/03/10 06:54:52;;;;;;;14.05;2.88;;;8.80;99.90;;;7.85;90.47;99845.22;4151340;28;20030;-76
2023/03/10 06:56:53;;;;;;;16.38;2.50;;;8.80;99.90;;;7.94;91.18;99849.50;4152250;28;20030;-77
2023/03/10 06:58:53;;;;;;;13.52;3.20;;;8.80;99.90;;;7.86;91.10;99866.06;4152251;28;20045;-76
2023/03/10 07:00:54;;;;;;;18.52;2.80;;;8.80;99.90;;;7.85;91.32;99860.97;4152448;28;20512;-76
2023/03/10 07:02:55;;;;;;;16.52;3.05;;;8.80;99.90;;;8.00;90.76;99869.88;4151079;28;20030;-77
2023/03/10 07:04:56;;;;;;;15.77;2.95;;;8.80;99.90;;;7.95;90.61;99874.75;4134819;28;20018;-77
2023/03/10 07:06:57;;;;;;;16.10;3.63;;;8.80;99.90;;;7.85;90.70;99881.97;4154929;28;20022;-77
2023/03/10 07:08:58;;;;;;;17.77;2.28;;;8.80;99.90;;;7.92;92.04;99894.28;4151193;28;20029;-77
2023/03/10 07:10:59;;;;;;;18.27;4.13;;;8.80;99.90;;;7.83;90.39;99903.13;4134995;28;20118;-78
2023/03/10 07:13:01;;;;;;;9.13;3.15;;;8.80;99.90;;;7.92;89.71;99914.47;4152053;28;20054;-77
2023/03/10 07:15:03;;;;;;;13.73;2.55;;;8.80;99.90;;;7.95;87.73;99920.22;4152133;28;20041;-76
2023/03/10 07:17:03;;;;;;;13.95;2.40;;;8.80;99.90;;;7.94;86.65;99921.25;4150299;28;20024;-77
2023/03/10 07:19:05;;;;;;;13.35;2.67;;;8.90;99.90;;;7.96;86.92;99949.94;4134783;28;20034;-77
2023/03/10 07:21:11;;;;;;;14.00;2.38;;;8.90;99.90;;;7.87;85.87;99943.84;4147676;28;20025;-77
2023/03/10 07:23:12;;;;;;;10.38;2.10;;;8.90;99.90;;;7.87;86.05;99940.41;4152501;28;20048;-77
2023/03/10 07:25:13;;;;;;;14.77;2.67;;;8.90;99.90;;;7.96;84.57;99948.16;4151713;28;20025;-77
2023/03/10 07:27:14;;;;;;;9.88;2.30;;;8.90;99.90;;;7.89;84.99;99949.75;4145794;28;20054;-76
2023/03/10 07:29:15;;;;;;;12.25;2.70;;;8.90;99.90;;;7.90;85.21;99963.72;4150902;28;20085;-76
2023/03/10 07:31:16;;;;;;;10.85;2.40;;;8.90;99.90;;;7.92;83.91;99943.34;4138548;28;20034;-76
2023/03/10 07:33:17;;;;;;;10.43;2.40;;;8.90;99.90;;;7.90;84.37;99961.91;4160789;28;20524;-76
2023/03/10 07:35:18;;;;;;;12.32;2.60;;;8.90;99.90;;;8.01;83.87;99974.75;4170803;28;20520;-76
2023/03/10 07:37:19;;;;;;;11.77;2.80;;;8.90;99.90;;;8.04;84.56;100007.75;4170497;28;20034;-76
2023/03/10 07:39:20;;;;;;;19.25;3.42;;;8.90;99.90;;;8.04;85.04;99997.25;4155283;28;20033;-76
2023/03/10 07:41:21;;;;;;;11.10;2.30;;;8.90;99.90;;;8.07;83.20;100002.19;4154233;28;20527;-77
2023/03/10 07:43:22;;;;;;;12.35;2.15;;;9.00;99.90;;;8.09;82.35;100040.47;4155251;28;20453;-77
2023/03/10 07:45:25;;;;;;;13.35;2.47;;;9.00;99.90;;;8.08;82.54;100045.88;4155228;28;20042;-77
2023/03/10 07:47:26;;;;;;;8.38;1.77;;;9.00;99.90;;;7.98;81.20;100038.09;4152506;28;20022;-77
2023/03/10 07:49:27;;;;;;;15.40;2.40;;;9.00;99.90;;;8.09;81.57;100044.91;4153701;28;20026;-77
2023/03/10 07:51:28;;;;;;;12.50;2.50;;;9.00;99.90;;;8.15;82.39;100046.91;4136642;28;20625;-76
2023/03/10 07:53:29;;;;;;;13.90;2.05;;;9.00;99.90;;;8.11;81.69;100035.03;4141404;28;20104;-76
2023/03/10 07:55:30;;;;;;;10.15;2.90;;;9.10;99.90;;;8.24;80.77;100056.47;4152254;28;20135;-77
2023/03/10 07:57:31;;;;;;;11.48;2.45;;;9.10;99.90;;;8.24;81.16;100064.34;4147586;28;20034;-77
2023/03/10 07:59:32;;;;;;;7.00;2.15;;;9.10;99.90;;;8.25;81.30;100068.59;4154343;28;20034;-77
2023/03/10 08:01:33;;;;;;;9.45;2.53;;;9.20;99.90;;;8.28;81.03;100081.44;4152856;28;20026;-76
2023/03/10 08:03:34;;;;;;;15.95;2.67;;;9.20;99.90;;;8.21;79.12;100090.94;4152877;28;20030;-76
2023/03/10 08:05:42;;;;;;;12.10;1.77;;;9.20;99.90;;;8.31;79.72;100091.66;4158298;28;20084;-77
2023/03/10 08:07:43;;;;;;;11.20;2.67;;;9.20;99.90;;;8.25;79.78;100095.69;4153002;28;20033;-75
2023/03/10 08:09:51;;;;;;;10.38;2.03;;;9.30;99.90;;;8.12;79.40;100089.25;4153231;28;20037;-76
2023/03/10 08:11:52;;;;;;;12.73;2.00;;;9.20;99.90;;;8.26;80.12;100125.44;4152783;28;20092;-75
2023/03/10 08:13:53;;;;;;;10.88;2.50;;;9.20;99.90;;;8.21;80.13;100114.56;4152606;28;20053;-74
2023/03/10 08:15:54;;;;;;;11.68;1.98;;;9.20;99.90;;;8.20;79.04;100128.69;4154450;28;20032;-75
2023/03/10 08:17:54;;;;;;;10.13;2.05;;;9.20;99.90;;;8.17;78.94;100119.31;4153811;28;20036;-75
2023/03/10 08:19:57;;;;;;;11.20;2.05;;;9.20;99.90;;;8.22;79.34;100114.41;4154083;28;20068;-76
2023/03/10 08:21:58;;;;;;;7.90;2.03;;;9.20;99.90;;;8.28;80.40;100132.19;4152474;28;20092;-75
2023/03/10 08:23:59;;;;;;;11.32;3.25;;;9.20;99.90;;;8.24;79.65;100132.66;4168406;28;20022;-74
2023/03/10 08:26:11;;;;;;;8.43;1.95;;;9.20;99.90;;;8.39;79.89;100154.78;4153098;28;20052;-76
2023/03/10 08:28:13;;;;;;;13.18;1.92;;;9.30;99.90;;;8.39;79.45;100157.41;4152255;28;20129;-75
2023/03/10 08:30:14;;;;;;;13.07;2.22;;;9.30;99.90;;;8.53;78.57;100154.19;4153906;28;20038;-75
2023/03/10 08:32:15;;;;;;;11.80;2.85;;;9.30;99.90;;;8.54;78.85;100170.78;4153572;28;20026;-75
2023/03/10 08:34:17;;;;;;;10.50;1.83;;;9.40;99.90;;;8.64;79.54;100180.19;4153973;28;20018;-74
2023/03/10 08:36:22;;;;;;;7.90;2.10;;;9.50;99.90;;;8.61;79.46;100167.34;4152253;28;20072;-77